createdAt,value
2023-01-19T00:00:56.591Z,7.92
2023-01-19T00:03:23.514Z,7.87
2023-01-19T00:05:50.366Z,7.85
2023-01-19T00:08:17.643Z,7.86
2023-01-19T00:10:51.288Z,7.87
2023-01-19T00:13:18.591Z,7.87
2023-01-19T00:15:45.433Z,7.91
2023-01-19T00:18:14.471Z,7.95
2023-01-19T00:20:41.531Z,7.98
2023-01-19T00:23:09.593Z,8.01
2023-01-19T00:25:42.555Z,8.11
2023-01-19T00:28:14.194Z,8.09
2023-01-19T00:30:42.183Z,8.09
2023-01-19T00:33:10.265Z,8.12
2023-01-19T00:35:37.149Z,8.13
2023-01-19T00:38:04.026Z,8.13
2023-01-19T00:40:30.878Z,8.18
2023-01-19T00:42:58.225Z,8.17
2023-01-19T00:45:25.457Z,8.18
2023-01-19T00:47:57.237Z,8.19
2023-01-19T00:50:25.921Z,8.26
2023-01-19T00:52:54.198Z,8.31
2023-01-19T00:55:21.732Z,8.32
2023-01-19T00:57:49.033Z,8.31
2023-01-19T01:00:19.846Z,8.28
2023-01-19T01:02:48.158Z,8.32
2023-01-19T01:05:15.430Z,8.28
2023-01-19T01:07:44.519Z,8.31
2023-01-19T01:10:14.790Z,8.31
2023-01-19T01:12:42.159Z,8.29
2023-01-19T01:15:23.414Z,8.27
2023-01-19T01:17:53.056Z,8.29
2023-01-19T01:20:27.114Z,8.42
2023-01-19T01:22:54.389Z,8.51
2023-01-19T01:25:23.621Z,8.45
2023-01-19T01:27:50.706Z,8.28
2023-01-19T01:30:17.683Z,8.24
2023-01-19T01:32:44.652Z,8.05
2023-01-19T01:35:12.591Z,7.90
2023-01-19T01:37:40.620Z,7.83
2023-01-19T01:40:08.031Z,7.66
2023-01-19T01:42:34.966Z,7.43
2023-01-19T01:45:22.229Z,7.25
2023-01-19T01:47:50.570Z,7.17
2023-01-19T01:50:26.780Z,7.23
2023-01-19T01:53:06.480Z,7.32
2023-01-19T01:55:38.372Z,7.42
2023-01-19T01:58:07.541Z,7.28
2023-01-19T02:00:54.419Z,7.32
2023-01-19T02:03:24.760Z,7.43
2023-01-19T02:05:53.700Z,7.46
2023-01-19T02:08:52.983Z,7.32
2023-01-19T02:11:38.747Z,7.20
2023-01-19T02:14:06.375Z,7.15
2023-01-19T02:16:35.045Z,7.26
2023-01-19T02:19:01.947Z,7.30
2023-01-19T02:21:43.070Z,7.33
2023-01-19T02:24:10.973Z,7.14
2023-01-19T02:26:44.397Z,6.84
2023-01-19T02:29:17.993Z,6.82
2023-01-19T02:31:48.194Z,6.79
2023-01-19T02:34:17.952Z,6.79
2023-01-19T02:36:52.787Z,6.79
2023-01-19T02:39:27.093Z,6.75
2023-01-19T02:41:59.311Z,6.67
2023-01-19T02:44:27.794Z,6.72
2023-01-19T02:46:57.341Z,6.62
2023-01-19T02:49:27.609Z,6.27
2023-01-19T02:51:54.737Z,6.34
2023-01-19T02:54:33.817Z,6.22
2023-01-19T02:57:32.304Z,6.10
2023-01-19T03:00:01.876Z,6.24
2023-01-19T03:02:44.204Z,6.34
2023-01-19T03:05:17.428Z,6.49
2023-01-19T03:08:25.152Z,6.61
2023-01-19T03:11:00.789Z,6.61
2023-01-19T03:13:52.113Z,6.48
2023-01-19T03:16:28.020Z,6.45
2023-01-19T03:18:58.360Z,6.52
2023-01-19T03:21:27.752Z,6.43
2023-01-19T03:24:00.464Z,6.32
2023-01-19T03:26:30.893Z,6.08
2023-01-19T03:29:02.682Z,6.04
2023-01-19T03:31:33.275Z,5.82
2023-01-19T03:34:06.803Z,5.84
2023-01-19T03:36:49.196Z,5.92
2023-01-19T03:39:23.018Z,5.92
2023-01-19T03:41:59.925Z,5.96
2023-01-19T03:44:29.183Z,6.00
2023-01-19T03:46:58.500Z,5.99
2023-01-19T03:49:25.957Z,5.66
2023-01-19T03:51:55.832Z,5.79
2023-01-19T03:54:23.086Z,5.88
2023-01-19T03:56:49.792Z,5.86
2023-01-19T03:59:17.619Z,5.90
2023-01-19T04:01:44.625Z,5.89
2023-01-19T04:04:11.683Z,5.81
2023-01-19T04:06:38.724Z,5.97
2023-01-19T04:09:06.054Z,5.91
2023-01-19T04:11:32.777Z,5.88
2023-01-19T04:13:59.714Z,5.89
2023-01-19T04:16:26.500Z,5.97
2023-01-19T04:18:53.543Z,5.85
2023-01-19T04:21:22.829Z,5.78
2023-01-19T04:23:50.378Z,5.61
2023-01-19T04:26:17.103Z,5.44
2023-01-19T04:28:43.786Z,5.59
2023-01-19T04:31:10.856Z,5.66
2023-01-19T04:33:37.733Z,5.70
2023-01-19T04:36:04.835Z,5.69
2023-01-19T04:38:31.830Z,5.48
2023-01-19T04:40:58.584Z,5.30
2023-01-19T04:43:25.413Z,5.44
2023-01-19T04:45:52.316Z,5.55
2023-01-19T04:48:19.689Z,5.50
2023-01-19T04:50:47.338Z,5.52
2023-01-19T04:53:14.599Z,5.57
2023-01-19T04:55:41.337Z,5.52
2023-01-19T04:58:08.416Z,5.45
2023-01-19T05:00:35.623Z,5.49
2023-01-19T05:03:02.807Z,5.62
2023-01-19T05:05:29.947Z,5.75
2023-01-19T05:07:56.841Z,5.88
2023-01-19T05:10:23.978Z,5.98
2023-01-19T05:12:51.320Z,6.07
2023-01-19T05:15:18.100Z,6.19
2023-01-19T05:17:45.218Z,6.28
2023-01-19T05:20:15.685Z,6.38
2023-01-19T05:22:43.414Z,6.46
2023-01-19T05:25:10.227Z,6.52
2023-01-19T05:27:38.745Z,6.57
2023-01-19T05:30:06.537Z,6.61
2023-01-19T05:32:33.370Z,6.64
2023-01-19T05:35:00.200Z,6.70
2023-01-19T05:37:27.050Z,6.68
2023-01-19T05:39:54.219Z,6.85
2023-01-19T05:42:21.273Z,6.60
2023-01-19T05:44:48.037Z,6.28
2023-01-19T05:47:15.029Z,6.04
2023-01-19T05:49:41.831Z,5.90
2023-01-19T05:52:08.667Z,5.74
2023-01-19T05:54:35.617Z,5.66
2023-01-19T05:57:03.131Z,5.56
2023-01-19T05:59:29.913Z,5.59
2023-01-19T06:01:57.243Z,5.60
2023-01-19T06:04:24.152Z,5.73
2023-01-19T06:06:51.607Z,5.83
2023-01-19T06:09:18.652Z,5.89
2023-01-19T06:11:46.420Z,5.94
2023-01-19T06:14:13.704Z,6.11
2023-01-19T06:16:40.904Z,6.15
2023-01-19T06:19:07.690Z,6.17
2023-01-19T06:21:34.540Z,6.19
2023-01-19T06:24:01.397Z,6.13
2023-01-19T06:26:28.256Z,6.23
2023-01-19T06:28:55.395Z,6.21
2023-01-19T06:31:22.550Z,6.21
2023-01-19T06:33:49.948Z,6.20
2023-01-19T06:36:16.727Z,6.17
2023-01-19T06:38:44.003Z,6.07
2023-01-19T06:41:12.463Z,6.10
2023-01-19T06:43:39.296Z,6.07
2023-01-19T06:46:06.240Z,6.05
2023-01-19T06:48:33.083Z,6.02
2023-01-19T06:51:00.038Z,5.98
2023-01-19T06:53:28.442Z,5.96
2023-01-19T06:55:59.763Z,6.02
2023-01-19T06:58:28.375Z,5.97
2023-01-19T07:00:56.335Z,5.92
2023-01-19T07:03:23.827Z,5.86
2023-01-19T07:05:53.753Z,5.90
2023-01-19T07:08:20.887Z,5.97
2023-01-19T07:11:25.674Z,5.94
2023-01-19T07:13:35.923Z,6.00
2023-01-19T07:16:11.852Z,5.98
2023-01-19T07:18:39.894Z,6.00
2023-01-19T07:21:07.318Z,6.02
2023-01-19T07:23:35.089Z,6.05
2023-01-19T07:26:02.010Z,6.07
2023-01-19T07:28:29.616Z,6.09
2023-01-19T07:30:57.068Z,6.08
2023-01-19T07:33:25.077Z,6.15
2023-01-19T07:35:52.628Z,6.17
2023-01-19T07:38:20.395Z,6.13
2023-01-19T07:40:47.307Z,6.13
2023-01-19T07:43:15.028Z,6.20
2023-01-19T07:45:43.190Z,6.19
2023-01-19T07:48:10.027Z,6.23
2023-01-19T07:50:36.826Z,6.31
2023-01-19T07:53:08.603Z,6.28
2023-01-19T07:55:35.943Z,6.31
2023-01-19T07:58:06.643Z,6.22
2023-01-19T08:00:35.367Z,6.12
2023-01-19T08:03:03.750Z,6.08
2023-01-19T08:05:31.667Z,6.00
2023-01-19T08:07:59.021Z,6.09
2023-01-19T08:10:27.412Z,5.98
2023-01-19T08:12:55.263Z,5.52
2023-01-19T08:15:24.208Z,5.14
2023-01-19T08:17:59.050Z,5.19
2023-01-19T08:20:27.123Z,5.24
2023-01-19T08:23:01.623Z,5.24
2023-01-19T08:25:37.408Z,5.24
2023-01-19T08:28:06.493Z,5.14
2023-01-19T08:30:33.521Z,5.10
2023-01-19T08:33:08.380Z,5.12
2023-01-19T08:35:43.329Z,5.23
2023-01-19T08:38:11.148Z,5.20
2023-01-19T08:40:40.431Z,5.27
2023-01-19T08:43:09.963Z,5.24
2023-01-19T08:45:48.185Z,5.23
2023-01-19T08:48:17.295Z,5.36
2023-01-19T08:50:46.228Z,5.52
2023-01-19T08:53:13.633Z,5.60
2023-01-19T08:55:40.851Z,5.67
2023-01-19T08:58:08.956Z,5.73
2023-01-19T09:00:41.109Z,5.81
2023-01-19T09:03:11.475Z,5.87
2023-01-19T09:05:38.874Z,5.81
2023-01-19T09:08:09.411Z,5.88
2023-01-19T09:10:38.115Z,5.97
2023-01-19T09:13:08.353Z,6.10
2023-01-19T09:15:37.697Z,6.11
2023-01-19T09:18:07.259Z,6.22
2023-01-19T09:20:36.179Z,6.31
2023-01-19T09:23:03.267Z,6.45
2023-01-19T09:25:30.105Z,6.59
2023-01-19T09:27:56.928Z,6.74
2023-01-19T09:30:23.679Z,6.93
2023-01-19T09:32:50.609Z,7.08
2023-01-19T09:35:17.516Z,7.25
2023-01-19T09:37:47.926Z,7.45
2023-01-19T09:40:15.918Z,7.55
2023-01-19T09:42:47.349Z,7.64
2023-01-19T09:45:36.128Z,7.77
2023-01-19T09:48:13.374Z,7.93
2023-01-19T09:50:46.851Z,8.09
2023-01-19T09:54:01.483Z,8.26
2023-01-19T09:56:30.223Z,8.49
2023-01-19T09:58:58.501Z,8.61
2023-01-19T10:01:46.593Z,8.66
2023-01-19T10:04:25.508Z,8.78
2023-01-19T10:07:04.018Z,8.86
2023-01-19T10:09:47.627Z,8.87
2023-01-19T10:12:32.788Z,8.85
2023-01-19T10:15:04.213Z,8.89
2023-01-19T10:17:44.377Z,8.97
2023-01-19T10:20:18.062Z,9.07
2023-01-19T10:22:48.794Z,9.13
2023-01-19T10:25:20.509Z,9.13
2023-01-19T10:27:47.820Z,9.09
2023-01-19T10:30:24.524Z,9.00
2023-01-19T10:32:51.791Z,8.90
2023-01-19T10:35:27.260Z,8.86
2023-01-19T10:37:58.701Z,8.92
2023-01-19T10:40:47.798Z,8.97
2023-01-19T10:43:46.492Z,9.01
2023-01-19T10:46:37.348Z,9.08
2023-01-19T10:49:05.688Z,9.20
2023-01-19T10:51:32.757Z,9.25
2023-01-19T10:54:02.379Z,9.28
2023-01-19T10:56:35.280Z,9.34
2023-01-19T10:59:05.895Z,9.39
2023-01-19T11:01:36.983Z,9.42
2023-01-19T11:04:27.952Z,9.28
2023-01-19T11:07:14.016Z,9.22
2023-01-19T11:09:41.018Z,9.14
2023-01-19T11:12:16.846Z,9.22
2023-01-19T11:14:43.781Z,9.25
2023-01-19T11:17:27.919Z,9.29
2023-01-19T11:20:03.023Z,9.30
2023-01-19T11:22:33.974Z,9.38
2023-01-19T11:25:03.077Z,9.36
2023-01-19T11:27:32.077Z,9.38
2023-01-19T11:30:16.983Z,9.35
2023-01-19T11:32:43.798Z,9.32
2023-01-19T11:35:32.517Z,9.46
2023-01-19T11:38:19.570Z,9.50
2023-01-19T11:40:53.292Z,9.50
2023-01-19T11:43:23.310Z,9.46
2023-01-19T11:45:50.638Z,9.37
2023-01-19T11:48:29.247Z,9.35
2023-01-19T11:51:00.546Z,9.27
2023-01-19T11:53:30.823Z,9.26
2023-01-19T11:56:06.805Z,9.23
2023-01-19T11:58:39.178Z,9.08
2023-01-19T12:01:31.436Z,8.90
2023-01-19T12:03:58.168Z,8.76
2023-01-19T12:06:34.241Z,8.65
2023-01-19T12:09:10.566Z,8.53
2023-01-19T12:12:08.935Z,8.37
2023-01-19T12:14:43.768Z,8.21
2023-01-19T12:17:24.959Z,8.14
2023-01-19T12:20:28.155Z,8.09
2023-01-19T12:23:17.454Z,8.12
2023-01-19T12:25:54.950Z,8.28
2023-01-19T12:28:31.766Z,8.35
2023-01-19T12:31:01.137Z,8.34
2023-01-19T12:33:38.502Z,8.34
2023-01-19T12:36:35.607Z,8.39
2023-01-19T12:39:04.459Z,8.49
2023-01-19T12:41:38.932Z,8.55
2023-01-19T12:44:12.001Z,8.60
2023-01-19T12:46:43.512Z,8.91
2023-01-19T12:49:16.295Z,9.01
2023-01-19T12:51:43.774Z,9.11
2023-01-19T12:54:23.490Z,9.12
2023-01-19T12:56:58.619Z,9.02
2023-01-19T12:59:27.444Z,9.08
2023-01-19T13:02:22.255Z,9.20
2023-01-19T13:05:32.507Z,9.38
2023-01-19T13:08:02.412Z,9.49
2023-01-19T13:11:03.057Z,9.37
2023-01-19T13:13:42.297Z,9.43
2023-01-19T13:16:18.290Z,9.45
2023-01-19T13:18:45.126Z,9.42
2023-01-19T13:21:12.623Z,9.43
2023-01-19T13:23:51.429Z,9.43
2023-01-19T13:26:21.966Z,9.38
2023-01-19T13:28:55.700Z,9.36
2023-01-19T13:31:24.431Z,9.38
2023-01-19T13:33:55.036Z,9.31
2023-01-19T13:36:38.480Z,9.33
2023-01-19T13:39:18.697Z,9.36
2023-01-19T13:41:47.316Z,9.46
2023-01-19T13:44:30.339Z,9.47
2023-01-19T13:46:59.400Z,9.40
2023-01-19T13:49:36.423Z,9.45
2023-01-19T13:52:06.283Z,9.42
2023-01-19T13:54:33.085Z,9.52
2023-01-19T13:56:59.803Z,9.54
2023-01-19T13:59:26.594Z,9.56
2023-01-19T14:01:54.310Z,9.57
2023-01-19T14:04:30.791Z,9.55
2023-01-19T14:07:01.623Z,9.57
2023-01-19T14:09:28.940Z,9.63
2023-01-19T14:12:05.164Z,9.68
2023-01-19T14:14:32.693Z,9.73
2023-01-19T14:16:59.699Z,9.72
2023-01-19T14:19:26.552Z,9.77
2023-01-19T14:22:04.331Z,9.73
2023-01-19T14:24:33.289Z,9.76
2023-01-19T14:27:10.010Z,9.70
2023-01-19T14:29:40.555Z,9.66
2023-01-19T14:32:10.062Z,9.59
2023-01-19T14:34:42.851Z,9.55
2023-01-19T14:37:37.471Z,9.57
2023-01-19T14:40:17.517Z,9.62
2023-01-19T14:42:50.181Z,9.73
2023-01-19T14:45:21.371Z,9.77
2023-01-19T14:48:19.291Z,9.74
2023-01-19T14:51:02.112Z,9.68
2023-01-19T14:53:36.699Z,9.59
2023-01-19T14:56:05.980Z,9.30
2023-01-19T14:58:34.917Z,9.19
2023-01-19T15:01:02.846Z,9.09
2023-01-19T15:03:46.187Z,9.17
2023-01-19T15:06:20.125Z,9.18
2023-01-19T15:08:47.378Z,9.12
2023-01-19T15:11:31.908Z,9.10
2023-01-19T15:13:59.303Z,9.12
2023-01-19T15:16:29.143Z,8.93
2023-01-19T15:18:56.140Z,8.71
2023-01-19T15:21:23.816Z,8.76
2023-01-19T15:23:50.797Z,8.72
2023-01-19T15:26:23.054Z,8.69
2023-01-19T15:28:50.603Z,8.49
2023-01-19T15:31:20.727Z,8.54
2023-01-19T15:33:47.666Z,8.56
2023-01-19T15:36:18.319Z,8.65
2023-01-19T15:38:46.046Z,8.57
2023-01-19T15:41:20.776Z,8.56
2023-01-19T15:43:49.369Z,8.55
2023-01-19T15:46:18.784Z,8.54
2023-01-19T15:48:45.539Z,8.57
2023-01-19T15:51:17.103Z,8.52
2023-01-19T15:53:45.207Z,8.47
2023-01-19T15:56:19.671Z,8.41
2023-01-19T15:58:46.877Z,8.35
2023-01-19T16:01:16.201Z,8.30
2023-01-19T16:03:43.432Z,8.21
2023-01-19T16:06:11.174Z,8.17
2023-01-19T16:08:38.512Z,8.17
2023-01-19T16:11:15.320Z,8.15
2023-01-19T16:13:46.243Z,8.08
2023-01-19T16:16:20.985Z,8.01
2023-01-19T16:18:48.067Z,7.95
2023-01-19T16:21:14.893Z,7.91
2023-01-19T16:23:42.047Z,7.84
2023-01-19T16:26:22.993Z,7.83
2023-01-19T16:28:49.835Z,7.83
2023-01-19T16:31:16.738Z,7.83
2023-01-19T16:33:45.346Z,7.83
2023-01-19T16:36:42.618Z,7.83
2023-01-19T16:39:12.907Z,7.79
2023-01-19T16:41:40.242Z,7.76
2023-01-19T16:44:07.363Z,7.67
2023-01-19T16:46:36.853Z,7.46
2023-01-19T16:49:06.193Z,7.24
2023-01-19T16:51:33.675Z,6.88
2023-01-19T16:54:00.505Z,6.65
2023-01-19T16:56:27.391Z,6.64
2023-01-19T16:58:58.435Z,6.60
2023-01-19T17:01:27.386Z,6.61
2023-01-19T17:03:55.485Z,6.67
2023-01-19T17:06:23.614Z,6.67
2023-01-19T17:08:52.031Z,6.58
2023-01-19T17:11:30.634Z,6.33
2023-01-19T17:14:06.200Z,6.22
2023-01-19T17:16:34.283Z,6.04
2023-01-19T17:19:02.982Z,6.03
2023-01-19T17:21:29.802Z,6.05
2023-01-19T17:23:57.959Z,6.10
2023-01-19T17:26:25.973Z,6.22
2023-01-19T17:28:52.719Z,6.31
2023-01-19T17:31:22.024Z,6.38
2023-01-19T17:33:50.527Z,6.41
2023-01-19T17:36:22.874Z,6.36
2023-01-19T17:38:50.292Z,6.40
2023-01-19T17:41:19.576Z,6.40
2023-01-19T17:43:47.325Z,6.35
2023-01-19T17:46:14.144Z,6.26
2023-01-19T17:48:41.076Z,6.22
2023-01-19T17:51:11.373Z,6.17
2023-01-19T17:53:39.978Z,6.11
2023-01-19T17:56:12.364Z,6.13
2023-01-19T17:58:39.822Z,6.01
2023-01-19T18:01:22.113Z,5.67
2023-01-19T18:03:49.117Z,5.43
2023-01-19T18:06:16.719Z,5.52
2023-01-19T18:08:46.280Z,5.50
2023-01-19T18:11:14.898Z,5.65
2023-01-19T18:13:46.128Z,5.69
2023-01-19T18:16:15.943Z,5.67
2023-01-19T18:18:44.260Z,5.58
2023-01-19T18:21:14.300Z,5.56
2023-01-19T18:23:46.012Z,5.59
2023-01-19T18:26:16.201Z,5.62
2023-01-19T18:28:43.098Z,5.67
2023-01-19T18:31:12.128Z,5.61
2023-01-19T18:33:39.147Z,5.43
2023-01-19T18:36:06.472Z,5.20
2023-01-19T18:38:33.672Z,5.12
2023-01-19T18:41:10.257Z,4.99
2023-01-19T18:43:37.932Z,4.89
2023-01-19T18:46:04.982Z,4.71
2023-01-19T18:48:31.965Z,4.72
2023-01-19T18:51:03.339Z,4.70
2023-01-19T18:53:32.245Z,4.74
2023-01-19T18:56:01.924Z,4.78
2023-01-19T18:58:30.050Z,4.84
2023-01-19T19:00:57.421Z,5.02
2023-01-19T19:03:24.414Z,5.04
2023-01-19T19:05:53.845Z,5.04
2023-01-19T19:08:20.917Z,5.00
2023-01-19T19:10:47.904Z,5.02
2023-01-19T19:13:16.799Z,4.82
2023-01-19T19:15:44.470Z,4.83
2023-01-19T19:18:13.964Z,4.96
2023-01-19T19:20:43.251Z,5.07
2023-01-19T19:23:13.011Z,5.14
2023-01-19T19:25:39.891Z,5.20
2023-01-19T19:28:07.083Z,5.16
2023-01-19T19:30:35.700Z,5.00
2023-01-19T19:33:02.604Z,5.01
2023-01-19T19:35:29.447Z,4.69
2023-01-19T19:37:57.827Z,4.59
2023-01-19T19:40:26.631Z,4.69
2023-01-19T19:42:53.591Z,4.76
2023-01-19T19:45:22.285Z,4.74
2023-01-19T19:48:00.704Z,4.46
2023-01-19T19:50:28.091Z,4.24
2023-01-19T19:52:54.914Z,4.15
2023-01-19T19:55:21.821Z,4.27
2023-01-19T19:57:48.673Z,4.44
2023-01-19T20:00:16.216Z,4.29
2023-01-19T20:02:43.040Z,4.23
2023-01-19T20:05:10.016Z,4.36
2023-01-19T20:07:39.133Z,4.42
2023-01-19T20:10:06.423Z,4.43
2023-01-19T20:12:33.531Z,4.45
2023-01-19T20:15:00.440Z,4.11
2023-01-19T20:17:27.285Z,4.06
2023-01-19T20:19:54.223Z,3.99
2023-01-19T20:22:21.106Z,4.01
2023-01-19T20:24:48.157Z,4.08
2023-01-19T20:27:15.396Z,4.05
2023-01-19T20:29:43.204Z,4.13
2023-01-19T20:32:32.810Z,4.26
2023-01-19T20:35:00.259Z,4.30
2023-01-19T20:37:27.369Z,4.15
2023-01-19T20:39:54.499Z,3.99
2023-01-19T20:42:21.453Z,3.95
2023-01-19T20:44:49.777Z,3.96
2023-01-19T20:47:16.837Z,4.20
2023-01-19T20:49:44.205Z,4.12
2023-01-19T20:52:11.249Z,4.15
2023-01-19T20:54:39.936Z,4.01
2023-01-19T20:57:06.824Z,3.94
2023-01-19T20:59:36.952Z,3.82
2023-01-19T21:02:06.459Z,3.88
2023-01-19T21:04:33.650Z,4.04
2023-01-19T21:07:00.485Z,4.20
2023-01-19T21:09:27.258Z,4.22
2023-01-19T21:11:55.917Z,4.17
2023-01-19T21:14:24.392Z,4.17
2023-01-19T21:16:51.419Z,4.10
2023-01-19T21:19:18.447Z,4.11
2023-01-19T21:21:45.306Z,3.99
2023-01-19T21:24:12.162Z,4.05
2023-01-19T21:26:39.262Z,3.97
2023-01-19T21:29:06.056Z,3.85
2023-01-19T21:31:32.938Z,3.70
2023-01-19T21:33:59.875Z,3.76
2023-01-19T21:36:27.006Z,3.77
2023-01-19T21:39:00.375Z,3.86
2023-01-19T21:41:28.431Z,3.95
2023-01-19T21:43:55.319Z,3.96
2023-01-19T21:46:29.634Z,4.01
2023-01-19T21:49:01.780Z,3.93
2023-01-19T21:51:30.305Z,3.64
2023-01-19T21:53:59.820Z,3.42
2023-01-19T21:56:44.902Z,3.48
2023-01-19T21:59:16.068Z,3.61
2023-01-19T22:01:44.969Z,3.77
2023-01-19T22:04:12.595Z,3.94
2023-01-19T22:06:39.753Z,4.08
2023-01-19T22:09:07.527Z,4.17
2023-01-19T22:11:34.449Z,4.34
2023-01-19T22:14:01.317Z,4.48
2023-01-19T22:16:29.572Z,4.54
2023-01-19T22:18:59.545Z,4.65
2023-01-19T22:21:30.432Z,4.74
2023-01-19T22:23:59.298Z,4.79
2023-01-19T22:26:27.767Z,4.87
2023-01-19T22:28:56.606Z,4.89
2023-01-19T22:31:25.284Z,4.95
2023-01-19T22:33:53.138Z,4.98
2023-01-19T22:36:30.548Z,5.02
2023-01-19T22:38:59.721Z,5.08
2023-01-19T22:41:42.022Z,5.10
2023-01-19T22:44:13.122Z,5.11
2023-01-19T22:46:40.082Z,5.15
2023-01-19T22:49:08.273Z,5.19
2023-01-19T22:51:35.918Z,5.19
2023-01-19T22:54:03.881Z,5.25
2023-01-19T22:56:32.758Z,5.18
2023-01-19T22:59:00.302Z,5.06
2023-01-19T23:01:31.541Z,5.00
2023-01-19T23:03:58.211Z,4.97
2023-01-19T23:06:30.629Z,4.89
2023-01-19T23:09:00.087Z,4.77
2023-01-19T23:11:29.882Z,4.77
2023-01-19T23:13:58.156Z,4.61
2023-01-19T23:16:25.148Z,4.59
2023-01-19T23:18:56.911Z,4.48
2023-01-19T23:21:26.426Z,4.27
2023-01-19T23:23:56.653Z,3.98
2023-01-19T23:26:24.265Z,4.11
2023-01-19T23:28:56.533Z,4.13
2023-01-19T23:31:23.536Z,4.25
2023-01-19T23:33:52.100Z,4.23
2023-01-19T23:36:20.451Z,4.07
2023-01-19T23:38:55.539Z,4.04
2023-01-19T23:41:23.610Z,4.11
2023-01-19T23:43:50.794Z,4.24
2023-01-19T23:46:19.106Z,4.26
2023-01-19T23:48:46.827Z,4.38
2023-01-19T23:51:16.603Z,4.38
2023-01-19T23:53:43.620Z,4.43
2023-01-19T23:56:33.544Z,4.42
2023-01-19T23:59:14.773Z,4.48
